createdAt,value
2022-11-27T00:00:16.137Z,100622.19
2022-11-27T00:01:26.881Z,100624.75
2022-11-27T00:02:40.751Z,100622.13
2022-11-27T00:03:44.716Z,100622.00
2022-11-27T00:04:48.216Z,100622.00
2022-11-27T00:06:03.612Z,100625.72
2022-11-27T00:07:15.069Z,100627.28
2022-11-27T00:08:21.135Z,100630.03
2022-11-27T00:09:25.635Z,100624.69
2022-11-27T00:10:29.080Z,100617.88
2022-11-27T00:11:33.447Z,100629.34
2022-11-27T00:12:36.908Z,100629.28
2022-11-27T00:13:40.810Z,100622.16
2022-11-27T00:14:44.322Z,100629.22
2022-11-27T00:15:48.026Z,100621.25
2022-11-27T00:16:51.471Z,100622.97
2022-11-27T00:17:54.855Z,100626.41
2022-11-27T00:18:59.023Z,100621.25
2022-11-27T00:20:02.632Z,100622.16
2022-11-27T00:21:12.588Z,100620.56
2022-11-27T00:22:16.475Z,100613.50
2022-11-27T00:23:20.435Z,100611.97
2022-11-27T00:24:24.681Z,100614.59
2022-11-27T00:25:28.640Z,100619.75
2022-11-27T00:26:37.756Z,100618.03
2022-11-27T00:27:41.597Z,100613.50
2022-11-27T00:28:47.441Z,100615.34
2022-11-27T00:29:51.053Z,100620.63
2022-11-27T00:31:10.129Z,100620.50
2022-11-27T00:32:19.396Z,100625.72
2022-11-27T00:33:24.306Z,100626.69
2022-11-27T00:34:29.768Z,100623.97
2022-11-27T00:35:34.487Z,100623.06
2022-11-27T00:36:41.152Z,100623.88
2022-11-27T00:37:47.886Z,100615.16
2022-11-27T00:38:51.625Z,100620.44
2022-11-27T00:39:55.125Z,100623.03
2022-11-27T00:41:12.108Z,100612.47
2022-11-27T00:42:16.104Z,100615.06
2022-11-27T00:43:20.003Z,100614.16
2022-11-27T00:44:23.502Z,100618.50
2022-11-27T00:45:28.013Z,100612.44
2022-11-27T00:46:35.529Z,100619.47
2022-11-27T00:47:39.497Z,100619.53
2022-11-27T00:48:45.077Z,100617.94
2022-11-27T00:49:51.893Z,100616.03
2022-11-27T00:51:12.740Z,100613.28
2022-11-27T00:52:16.966Z,100615.88
2022-11-27T00:53:21.634Z,100616.97
2022-11-27T00:54:28.741Z,100615.19
2022-11-27T00:55:32.375Z,100615.97
2022-11-27T00:56:39.190Z,100616.78
2022-11-27T00:57:43.252Z,100616.84
2022-11-27T00:58:47.498Z,100617.69
2022-11-27T00:59:51.475Z,100615.97
2022-11-27T01:01:05.515Z,100615.16
2022-11-27T01:02:13.470Z,100618.69
2022-11-27T01:03:17.232Z,100614.25
2022-11-27T01:04:21.223Z,100609.91
2022-11-27T01:05:25.333Z,100609.91
2022-11-27T01:06:31.018Z,100609.06
2022-11-27T01:07:36.156Z,100611.63
2022-11-27T01:08:41.832Z,100608.13
2022-11-27T01:09:45.275Z,100604.63
2022-11-27T01:10:56.210Z,100607.31
2022-11-27T01:12:00.161Z,100607.31
2022-11-27T01:13:03.714Z,100613.41
2022-11-27T01:14:17.668Z,100612.47
2022-11-27T01:15:21.639Z,100612.53
2022-11-27T01:16:29.049Z,100609.84
2022-11-27T01:17:32.478Z,100614.19
2022-11-27T01:18:38.186Z,100614.31
2022-11-27T01:19:41.579Z,100610.00
2022-11-27T01:20:45.881Z,100608.25
2022-11-27T01:21:50.117Z,100602.91
2022-11-27T01:22:53.526Z,100604.69
2022-11-27T01:23:57.260Z,100604.63
2022-11-27T01:25:00.716Z,100604.56
2022-11-27T01:26:09.711Z,100599.28
2022-11-27T01:27:15.075Z,100609.06
2022-11-27T01:28:28.825Z,100594.09
2022-11-27T01:29:36.074Z,100607.28
2022-11-27T01:30:43.878Z,100609.16
2022-11-27T01:31:49.230Z,100609.09
2022-11-27T01:32:52.753Z,100605.72
2022-11-27T01:34:02.675Z,100604.88
2022-11-27T01:35:12.144Z,100608.69
2022-11-27T01:36:16.834Z,100603.41
2022-11-27T01:37:22.259Z,100608.59
2022-11-27T01:38:27.269Z,100606.81
2022-11-27T01:39:30.750Z,100601.53
2022-11-27T01:40:34.499Z,100598.88
2022-11-27T01:41:40.533Z,100599.69
2022-11-27T01:42:45.150Z,100602.41
2022-11-27T01:44:24.246Z,100596.31
2022-11-27T01:45:31.041Z,100597.13
2022-11-27T01:46:46.982Z,100599.75
2022-11-27T01:47:59.322Z,100599.88
2022-11-27T01:49:26.359Z,100602.38
2022-11-27T01:50:39.231Z,100599.69
2022-11-27T01:51:59.325Z,100598.94
2022-11-27T01:53:18.633Z,100598.41
2022-11-27T01:54:37.570Z,100600.09
2022-11-27T01:55:58.065Z,100600.91
2022-11-27T01:57:19.824Z,100595.50
2022-11-27T01:58:30.305Z,100601.63
2022-11-27T01:59:34.740Z,100594.66
2022-11-27T02:00:39.455Z,100602.41
2022-11-27T02:01:45.555Z,100599.75
2022-11-27T02:02:49.393Z,100597.13
2022-11-27T02:04:01.987Z,100595.41
2022-11-27T02:05:07.507Z,100594.50
2022-11-27T02:06:15.050Z,100602.50
2022-11-27T02:07:20.743Z,100602.59
2022-11-27T02:08:24.329Z,100601.59
2022-11-27T02:09:30.131Z,100603.31
2022-11-27T02:11:15.811Z,100606.97
2022-11-27T02:12:33.177Z,100603.59
2022-11-27T02:13:59.806Z,100606.28
2022-11-27T02:15:18.511Z,100601.91
2022-11-27T02:17:02.807Z,100598.47
2022-11-27T02:18:12.125Z,100604.56
2022-11-27T02:20:12.098Z,100606.41
2022-11-27T02:21:36.836Z,100603.63
2022-11-27T02:23:14.576Z,100601.19
2022-11-27T02:24:48.539Z,100602.72
2022-11-27T02:26:36.330Z,100609.66
2022-11-27T02:27:54.293Z,100602.78
2022-11-27T02:29:14.844Z,100603.47
2022-11-27T02:30:18.932Z,100609.81
2022-11-27T02:31:33.337Z,100601.88
2022-11-27T02:32:58.100Z,100607.19
2022-11-27T02:34:45.925Z,100608.09
2022-11-27T02:36:12.117Z,100605.31
2022-11-27T02:37:46.766Z,100606.97
2022-11-27T02:39:10.756Z,100606.97
2022-11-27T02:40:38.842Z,100611.41
2022-11-27T02:41:54.840Z,100612.31
2022-11-27T02:43:26.989Z,100616.59
2022-11-27T02:44:37.164Z,100614.91
2022-11-27T02:45:48.510Z,100620.31
2022-11-27T02:46:54.484Z,100621.94
2022-11-27T02:47:59.802Z,100626.28
2022-11-27T02:49:12.022Z,100620.09
2022-11-27T02:50:27.010Z,100621.22
2022-11-27T02:51:57.796Z,100617.50
2022-11-27T02:53:10.307Z,100628.06
2022-11-27T02:54:25.893Z,100620.19
2022-11-27T02:55:36.140Z,100624.56
2022-11-27T02:56:44.049Z,100624.50
2022-11-27T02:57:50.284Z,100625.25
2022-11-27T02:58:57.724Z,100628.81
2022-11-27T03:00:02.803Z,100633.22
2022-11-27T03:02:58.577Z,100630.81
2022-11-27T03:04:10.153Z,100628.09
2022-11-27T03:05:20.789Z,100634.22
2022-11-27T03:06:58.247Z,100633.31
2022-11-27T03:08:43.931Z,100633.41
2022-11-27T03:09:52.890Z,100637.94
2022-11-27T03:11:09.685Z,100638.94
2022-11-27T03:12:18.569Z,100637.03
2022-11-27T03:13:22.912Z,100630.03
2022-11-27T03:14:27.143Z,100629.09
2022-11-27T03:16:00.169Z,100626.34
2022-11-27T03:17:26.933Z,100626.41
2022-11-27T03:19:18.367Z,100629.03
2022-11-27T03:20:37.404Z,100630.91
2022-11-27T03:21:53.733Z,100632.69
2022-11-27T03:22:58.416Z,100637.09
2022-11-27T03:24:02.873Z,100638.75
2022-11-27T03:25:10.196Z,100637.97
2022-11-27T03:26:14.208Z,100635.38
2022-11-27T03:27:32.079Z,100629.13
2022-11-27T03:28:36.898Z,100631.09
2022-11-27T03:29:50.202Z,100640.72
2022-11-27T03:30:53.881Z,100638.94
2022-11-27T03:31:58.786Z,100628.28
2022-11-27T03:33:03.290Z,100632.69
2022-11-27T03:34:12.617Z,100635.25
2022-11-27T03:35:22.787Z,100632.56
2022-11-27T03:36:26.642Z,100636.28
2022-11-27T03:37:34.238Z,100636.25
2022-11-27T03:38:38.410Z,100633.78
2022-11-27T03:39:43.334Z,100627.59
2022-11-27T03:41:10.555Z,100635.38
2022-11-27T03:42:49.117Z,100632.75
2022-11-27T03:44:20.562Z,100633.72
2022-11-27T03:46:09.668Z,100628.34
2022-11-27T03:47:51.029Z,100635.31
2022-11-27T03:49:14.470Z,100636.19
2022-11-27T03:50:58.025Z,100637.91
2022-11-27T03:52:23.720Z,100635.22
2022-11-27T03:53:56.425Z,100640.50
2022-11-27T03:55:24.538Z,100640.53
2022-11-27T03:56:37.272Z,100636.13
2022-11-27T03:58:21.078Z,100640.72
2022-11-27T03:59:30.423Z,100639.00
2022-11-27T04:00:40.709Z,100638.03
2022-11-27T04:01:44.411Z,100636.19
2022-11-27T04:02:53.243Z,100635.22
2022-11-27T04:03:57.101Z,100645.00
2022-11-27T04:05:01.216Z,100639.72
2022-11-27T04:06:07.665Z,100636.13
2022-11-27T04:07:18.747Z,100636.94
2022-11-27T04:08:22.938Z,100635.22
2022-11-27T04:09:26.653Z,100647.41
2022-11-27T04:10:30.278Z,100631.56
2022-11-27T04:11:34.658Z,100638.81
2022-11-27T04:12:38.593Z,100635.31
2022-11-27T04:13:42.300Z,100635.22
2022-11-27T04:14:45.925Z,100635.13
2022-11-27T04:15:49.762Z,100635.09
2022-11-27T04:16:53.316Z,100628.91
2022-11-27T04:17:59.415Z,100637.69
2022-11-27T04:19:03.043Z,100638.66
2022-11-27T04:20:11.725Z,100637.72
2022-11-27T04:21:17.762Z,100630.63
2022-11-27T04:22:22.163Z,100633.22
2022-11-27T04:23:25.725Z,100633.22
2022-11-27T04:24:29.275Z,100638.50
2022-11-27T04:25:37.655Z,100634.94
2022-11-27T04:26:41.606Z,100634.09
2022-11-27T04:27:45.460Z,100640.19
2022-11-27T04:28:49.151Z,100640.19
2022-11-27T04:29:52.647Z,100643.72
2022-11-27T04:30:56.408Z,100645.44
2022-11-27T04:32:01.088Z,100645.44
2022-11-27T04:33:12.220Z,100649.84
2022-11-27T04:34:15.987Z,100646.34
2022-11-27T04:35:20.131Z,100653.38
2022-11-27T04:36:24.270Z,100646.34
2022-11-27T04:37:37.541Z,100645.47
2022-11-27T04:38:41.831Z,100644.56
2022-11-27T04:39:49.217Z,100644.56
2022-11-27T04:40:56.294Z,100644.56
2022-11-27T04:42:00.289Z,100654.31
2022-11-27T04:43:04.096Z,100643.78
2022-11-27T04:44:13.373Z,100650.75
2022-11-27T04:45:17.413Z,100643.78
2022-11-27T04:46:21.930Z,100641.13
2022-11-27T04:47:31.798Z,100643.78
2022-11-27T04:48:42.412Z,100642.03
2022-11-27T04:49:46.244Z,100642.00
2022-11-27T04:50:49.749Z,100646.34
2022-11-27T04:51:53.525Z,100639.34
2022-11-27T04:52:57.928Z,100636.78
2022-11-27T04:54:01.649Z,100631.41
2022-11-27T04:55:07.449Z,100633.16
2022-11-27T04:56:12.598Z,100632.31
2022-11-27T04:57:19.875Z,100629.69
2022-11-27T04:58:25.577Z,100628.75
2022-11-27T04:59:30.008Z,100634.13
2022-11-27T05:00:33.642Z,100631.44
2022-11-27T05:01:37.328Z,100628.75
2022-11-27T05:02:41.331Z,100630.53
2022-11-27T05:03:47.290Z,100634.88
2022-11-27T05:04:50.779Z,100633.09
2022-11-27T05:05:58.515Z,100634.88
2022-11-27T05:07:02.095Z,100631.38
2022-11-27T05:08:07.233Z,100627.88
2022-11-27T05:09:12.262Z,100630.53
2022-11-27T05:10:15.935Z,100634.03
2022-11-27T05:11:19.830Z,100627.94
2022-11-27T05:12:24.214Z,100629.72
2022-11-27T05:13:28.238Z,100627.09
2022-11-27T05:14:31.860Z,100629.84
2022-11-27T05:15:35.646Z,100629.09
2022-11-27T05:16:39.627Z,100628.16
2022-11-27T05:17:44.974Z,100629.03
2022-11-27T05:18:48.751Z,100639.53
2022-11-27T05:19:52.384Z,100635.16
2022-11-27T05:21:02.631Z,100636.00
2022-11-27T05:22:06.902Z,100628.13
2022-11-27T05:23:13.088Z,100628.97
2022-11-27T05:24:20.736Z,100627.22
2022-11-27T05:25:25.069Z,100626.34
2022-11-27T05:26:29.105Z,100631.50
2022-11-27T05:27:32.864Z,100631.50
2022-11-27T05:28:36.943Z,100627.94
2022-11-27T05:29:40.782Z,100625.38
2022-11-27T05:30:44.459Z,100631.50
2022-11-27T05:31:48.643Z,100634.13
2022-11-27T05:32:52.744Z,100633.41
2022-11-27T05:33:56.297Z,100636.88
2022-11-27T05:34:59.978Z,100633.41
2022-11-27T05:36:03.539Z,100636.94
2022-11-27T05:37:09.316Z,100645.75
2022-11-27T05:38:13.509Z,100653.63
2022-11-27T05:39:17.709Z,100649.09
2022-11-27T05:40:21.683Z,100654.31
2022-11-27T05:41:25.501Z,100651.69
2022-11-27T05:42:29.261Z,100653.50
2022-11-27T05:43:33.572Z,100659.59
2022-11-27T05:44:37.167Z,100656.03
2022-11-27T05:45:40.851Z,100654.25
2022-11-27T05:46:44.809Z,100649.84
2022-11-27T05:47:48.679Z,100659.69
2022-11-27T05:48:52.673Z,100656.94
2022-11-27T05:49:56.891Z,100656.88
2022-11-27T05:51:00.578Z,100650.69
2022-11-27T05:52:05.908Z,100652.41
2022-11-27T05:53:12.497Z,100646.28
2022-11-27T05:54:16.419Z,100651.50
2022-11-27T05:55:20.180Z,100648.88
2022-11-27T05:56:24.104Z,100647.97
2022-11-27T05:57:28.375Z,100653.22
2022-11-27T05:58:33.237Z,100647.03
2022-11-27T05:59:36.992Z,100652.31
2022-11-27T06:00:41.086Z,100643.59
2022-11-27T06:01:45.029Z,100647.09
2022-11-27T06:02:49.255Z,100645.38
2022-11-27T06:03:53.261Z,100642.97
2022-11-27T06:04:56.937Z,100643.78
2022-11-27T06:06:12.232Z,100641.19
2022-11-27T06:07:15.985Z,100641.19
2022-11-27T06:08:20.567Z,100637.63
2022-11-27T06:09:24.262Z,100641.09
2022-11-27T06:10:27.983Z,100637.56
2022-11-27T06:11:31.690Z,100631.41
2022-11-27T06:12:35.527Z,100633.16
2022-11-27T06:13:39.783Z,100632.25
2022-11-27T06:14:43.649Z,100639.31
2022-11-27T06:15:47.267Z,100629.66
2022-11-27T06:16:50.884Z,100633.22
2022-11-27T06:17:54.812Z,100641.94
2022-11-27T06:18:58.424Z,100639.31
2022-11-27T06:20:02.141Z,100641.19
2022-11-27T06:21:15.267Z,100639.34
2022-11-27T06:22:19.211Z,100641.09
2022-11-27T06:23:23.322Z,100639.34
2022-11-27T06:24:28.090Z,100643.72
2022-11-27T06:25:31.844Z,100644.63
2022-11-27T06:26:35.611Z,100647.25
2022-11-27T06:27:39.164Z,100645.53
2022-11-27T06:28:43.863Z,100649.91
2022-11-27T06:29:47.717Z,100653.41
2022-11-27T06:30:51.543Z,100647.25
2022-11-27T06:31:55.448Z,100646.34
2022-11-27T06:32:59.290Z,100646.47
2022-11-27T06:34:04.541Z,100643.81
2022-11-27T06:35:12.883Z,100639.47
2022-11-27T06:36:19.105Z,100641.19
2022-11-27T06:37:22.683Z,100636.06
2022-11-27T06:38:26.189Z,100637.03
2022-11-27T06:39:30.044Z,100640.53
2022-11-27T06:40:43.566Z,100645.00
2022-11-27T06:41:58.045Z,100638.81
2022-11-27T06:43:01.772Z,100642.34
2022-11-27T06:44:07.713Z,100635.41
2022-11-27T06:45:14.270Z,100639.75
2022-11-27T06:46:20.948Z,100635.34
2022-11-27T06:47:25.044Z,100630.97
2022-11-27T06:48:28.711Z,100635.41
2022-11-27T06:49:32.893Z,100635.41
2022-11-27T06:50:36.451Z,100639.00
2022-11-27T06:51:40.322Z,100634.63
2022-11-27T06:52:44.827Z,100633.72
2022-11-27T06:53:49.033Z,100642.44
2022-11-27T06:54:53.268Z,100635.50
2022-11-27T06:55:57.853Z,100637.22
2022-11-27T06:57:01.430Z,100635.50
2022-11-27T06:58:05.102Z,100639.00
2022-11-27T06:59:14.759Z,100635.50
2022-11-27T07:00:19.891Z,100628.44
2022-11-27T07:01:26.503Z,100628.44
2022-11-27T07:02:30.471Z,100637.22
2022-11-27T07:03:34.698Z,100631.03
2022-11-27T07:04:38.448Z,100627.53
2022-11-27T07:05:42.393Z,100629.44
2022-11-27T07:06:46.405Z,100630.25
2022-11-27T07:07:50.149Z,100630.22
2022-11-27T07:08:55.712Z,100632.00
2022-11-27T07:09:59.497Z,100633.94
2022-11-27T07:11:09.628Z,100633.88
2022-11-27T07:12:17.970Z,100625.97
2022-11-27T07:13:22.121Z,100635.59
2022-11-27T07:14:26.034Z,100635.59
2022-11-27T07:15:30.332Z,100623.34
2022-11-27T07:16:36.745Z,100628.63
2022-11-27T07:17:43.586Z,100634.75
2022-11-27T07:18:51.773Z,100626.84
2022-11-27T07:19:55.525Z,100634.75
2022-11-27T07:20:59.109Z,100632.97
2022-11-27T07:22:03.168Z,100633.88
2022-11-27T07:23:07.661Z,100632.97
2022-11-27T07:24:16.747Z,100632.13
2022-11-27T07:25:21.213Z,100636.44
2022-11-27T07:26:30.300Z,100633.75
2022-11-27T07:27:34.064Z,100629.38
2022-11-27T07:28:38.696Z,100636.34
2022-11-27T07:29:42.596Z,100632.81
2022-11-27T07:30:54.202Z,100630.19
2022-11-27T07:31:57.810Z,100638.09
2022-11-27T07:33:01.750Z,100630.13
2022-11-27T07:34:10.374Z,100633.56
2022-11-27T07:35:19.135Z,100641.41
2022-11-27T07:36:32.086Z,100639.72
2022-11-27T07:37:35.978Z,100637.91
2022-11-27T07:38:39.568Z,100637.94
2022-11-27T07:40:01.377Z,100638.75
2022-11-27T07:41:13.320Z,100639.63
2022-11-27T07:43:44.273Z,100637.75
2022-11-27T07:44:47.944Z,100644.72
2022-11-27T07:45:51.557Z,100635.13
2022-11-27T07:46:55.604Z,100635.16
2022-11-27T07:47:59.432Z,100635.09
2022-11-27T07:49:04.074Z,100633.44
2022-11-27T07:50:14.998Z,100633.38
2022-11-27T07:51:22.724Z,100635.13
2022-11-27T07:52:27.463Z,100636.88
2022-11-27T07:53:31.450Z,100644.78
2022-11-27T07:54:36.264Z,100648.41
2022-11-27T07:55:41.544Z,100646.63
2022-11-27T07:56:47.685Z,100652.09
2022-11-27T07:57:51.973Z,100650.34
2022-11-27T07:58:59.695Z,100651.94
2022-11-27T08:00:04.972Z,100639.72
2022-11-27T08:01:18.041Z,100644.03
2022-11-27T08:02:21.984Z,100644.09
2022-11-27T08:03:26.233Z,100644.09
2022-11-27T08:04:31.059Z,100639.63
2022-11-27T08:05:36.747Z,100644.03
2022-11-27T08:06:40.797Z,100646.63
2022-11-27T08:07:44.905Z,100640.38
2022-11-27T08:08:49.359Z,100643.06
2022-11-27T08:09:53.305Z,100643.00
2022-11-27T08:10:57.038Z,100652.69
2022-11-27T08:12:00.583Z,100650.22
2022-11-27T08:13:06.618Z,100650.16
2022-11-27T08:14:16.460Z,100649.31
2022-11-27T08:15:20.901Z,100649.22
2022-11-27T08:16:24.987Z,100655.31
2022-11-27T08:17:28.588Z,100650.88
2022-11-27T08:18:37.303Z,100646.56
2022-11-27T08:19:40.923Z,100647.47
2022-11-27T08:20:44.764Z,100647.44
2022-11-27T08:21:48.524Z,100647.44
2022-11-27T08:22:54.239Z,100649.22
2022-11-27T08:24:01.127Z,100648.28
2022-11-27T08:25:05.949Z,100653.56
2022-11-27T08:26:13.520Z,100650.91
2022-11-27T08:27:17.730Z,100647.41
2022-11-27T08:28:21.431Z,100647.53
2022-11-27T08:29:31.204Z,100649.22
2022-11-27T08:30:37.858Z,100646.50
2022-11-27T08:31:41.760Z,100638.59
2022-11-27T08:32:45.687Z,100645.66
2022-11-27T08:33:49.725Z,100641.19
2022-11-27T08:34:53.204Z,100635.97
2022-11-27T08:35:57.164Z,100635.06
2022-11-27T08:37:00.902Z,100631.56
2022-11-27T08:38:07.190Z,100635.81
2022-11-27T08:39:12.616Z,100634.03
2022-11-27T08:40:16.447Z,100628.69
2022-11-27T08:41:20.207Z,100634.88
2022-11-27T08:42:24.689Z,100631.31
2022-11-27T08:43:30.151Z,100632.16
2022-11-27T08:44:33.647Z,100626.81
2022-11-27T08:45:40.845Z,100629.34
2022-11-27T08:46:44.615Z,100636.34
2022-11-27T08:47:48.299Z,100635.38
2022-11-27T08:48:51.826Z,100633.56
2022-11-27T08:49:55.507Z,100634.34
2022-11-27T08:50:59.261Z,100638.69
2022-11-27T08:52:02.828Z,100638.69
2022-11-27T08:53:10.787Z,100637.81
2022-11-27T08:54:14.558Z,100630.84
2022-11-27T08:55:18.514Z,100632.56
2022-11-27T08:56:28.098Z,100633.41
2022-11-27T08:57:31.780Z,100639.72
2022-11-27T08:58:37.010Z,100639.75
2022-11-27T08:59:40.848Z,100631.84
2022-11-27T09:00:44.710Z,100638.78
2022-11-27T09:01:48.603Z,100636.97
2022-11-27T09:02:52.303Z,100637.75
2022-11-27T09:04:00.377Z,100635.19
2022-11-27T09:05:12.674Z,100632.53
2022-11-27T09:06:40.183Z,100642.25
2022-11-27T09:07:44.217Z,100644.16
2022-11-27T09:08:49.379Z,100644.16
2022-11-27T09:09:53.579Z,100637.06
2022-11-27T09:11:01.468Z,100638.91
2022-11-27T09:12:06.555Z,100636.16
2022-11-27T09:13:16.465Z,100635.28
2022-11-27T09:14:20.226Z,100639.59
2022-11-27T09:15:24.040Z,100635.19
2022-11-27T09:16:30.294Z,100636.97
2022-11-27T09:17:33.914Z,100639.44
2022-11-27T09:18:37.696Z,100640.41
2022-11-27T09:19:44.015Z,100638.69
2022-11-27T09:21:01.906Z,100634.09
2022-11-27T09:22:05.710Z,100633.97
2022-11-27T09:23:14.590Z,100634.84
2022-11-27T09:24:18.970Z,100635.75
2022-11-27T09:25:23.371Z,100636.56
2022-11-27T09:26:29.789Z,100638.28
2022-11-27T09:27:33.512Z,100640.97
2022-11-27T09:28:39.165Z,100641.75
2022-11-27T09:29:43.739Z,100632.88
2022-11-27T09:30:47.561Z,100639.84
2022-11-27T09:31:51.736Z,100641.53
2022-11-27T09:32:55.674Z,100634.44
2022-11-27T09:33:59.356Z,100640.63
2022-11-27T09:35:03.670Z,100628.34
2022-11-27T09:36:14.716Z,100638.03
2022-11-27T09:37:20.450Z,100637.06
2022-11-27T09:38:24.626Z,100635.41
2022-11-27T09:39:33.516Z,100636.28
2022-11-27T09:40:37.652Z,100640.63
2022-11-27T09:41:55.574Z,100640.69
2022-11-27T09:43:11.376Z,100642.34
2022-11-27T09:44:40.339Z,100638.69
2022-11-27T09:45:52.542Z,100639.53
2022-11-27T09:47:01.559Z,100638.59
2022-11-27T09:48:18.148Z,100643.88
2022-11-27T09:49:35.825Z,100632.53
2022-11-27T09:50:50.567Z,100634.31
2022-11-27T09:52:04.510Z,100637.69
2022-11-27T09:53:24.452Z,100632.41
2022-11-27T09:54:55.857Z,100635.84
2022-11-27T09:56:07.400Z,100634.94
2022-11-27T09:57:34.404Z,100634.75
2022-11-27T09:59:04.650Z,100641.75
2022-11-27T10:00:19.203Z,100633.84
2022-11-27T10:01:38.567Z,100633.84
2022-11-27T10:02:49.102Z,100627.88
2022-11-27T10:03:53.622Z,100628.69
2022-11-27T10:05:15.942Z,100624.22
2022-11-27T10:06:42.494Z,100622.84
2022-11-27T10:08:06.928Z,100618.47
2022-11-27T10:09:57.471Z,100629.66
2022-11-27T10:11:28.714Z,100615.53
2022-11-27T10:12:53.132Z,100613.66
2022-11-27T10:14:24.119Z,100617.13
2022-11-27T10:16:03.274Z,100611.84
2022-11-27T10:17:29.953Z,100609.09
2022-11-27T10:19:10.862Z,100602.91
2022-11-27T10:20:23.902Z,100599.34
2022-11-27T10:21:47.985Z,100606.34
2022-11-27T10:23:42.041Z,100603.69
2022-11-27T10:25:30.026Z,100604.50
2022-11-27T10:26:59.151Z,100601.00
2022-11-27T10:28:56.971Z,100595.72
2022-11-27T10:30:04.452Z,100598.50
2022-11-27T10:31:36.115Z,100600.13
2022-11-27T10:32:55.199Z,100602.06
2022-11-27T10:34:19.850Z,100596.78
2022-11-27T10:35:34.304Z,100600.38
2022-11-27T10:36:46.694Z,100599.53
2022-11-27T10:38:20.589Z,100590.63
2022-11-27T10:39:43.120Z,100587.19
2022-11-27T10:41:34.339Z,100595.84
2022-11-27T10:43:22.810Z,100591.44
2022-11-27T10:44:38.766Z,100588.78
2022-11-27T10:45:58.226Z,100586.13
2022-11-27T10:47:10.948Z,100583.50
2022-11-27T10:48:15.616Z,100585.09
2022-11-27T10:49:19.504Z,100588.72
2022-11-27T10:50:23.269Z,100585.34
2022-11-27T10:51:36.308Z,100583.63
2022-11-27T10:52:58.000Z,100583.50
2022-11-27T10:54:08.918Z,100590.38
2022-11-27T10:55:38.760Z,100585.91
2022-11-27T10:57:04.171Z,100583.31
2022-11-27T10:58:35.082Z,100581.66
2022-11-27T10:59:51.537Z,100582.53
2022-11-27T11:01:12.987Z,100577.25
2022-11-27T11:02:41.133Z,100581.75
2022-11-27T11:03:45.764Z,100576.44
2022-11-27T11:05:09.079Z,100574.69
2022-11-27T11:06:24.196Z,100579.03
2022-11-27T11:07:30.426Z,100570.19
2022-11-27T11:08:37.367Z,100572.97
2022-11-27T11:09:48.684Z,100572.88
2022-11-27T11:11:01.520Z,100571.16
2022-11-27T11:12:21.591Z,100564.09
2022-11-27T11:13:43.286Z,100565.03
2022-11-27T11:15:01.860Z,100562.31
2022-11-27T11:16:17.463Z,100556.22
2022-11-27T11:17:34.412Z,100553.56
2022-11-27T11:18:54.056Z,100553.53
2022-11-27T11:19:57.695Z,100551.75
2022-11-27T11:21:10.307Z,100551.72
2022-11-27T11:22:17.057Z,100546.50
2022-11-27T11:23:32.592Z,100546.50
2022-11-27T11:24:42.628Z,100554.22
2022-11-27T11:25:53.607Z,100554.28
2022-11-27T11:27:08.238Z,100548.09
2022-11-27T11:28:19.827Z,100551.56
2022-11-27T11:29:51.845Z,100554.03
2022-11-27T11:31:09.970Z,100553.13
2022-11-27T11:32:31.369Z,100555.72
2022-11-27T11:33:58.261Z,100555.63
2022-11-27T11:35:33.111Z,100546.84
2022-11-27T11:36:37.297Z,100552.97
2022-11-27T11:37:46.404Z,100541.63
2022-11-27T11:38:52.063Z,100547.69
2022-11-27T11:40:16.336Z,100546.06
2022-11-27T11:41:21.870Z,100538.13
2022-11-27T11:42:34.296Z,100540.78
2022-11-27T11:43:39.433Z,100544.25
2022-11-27T11:45:01.751Z,100537.13
2022-11-27T11:46:23.503Z,100537.19
2022-11-27T11:47:27.576Z,100533.69
2022-11-27T11:48:31.334Z,100534.63
2022-11-27T11:49:36.636Z,100533.69
2022-11-27T11:50:41.386Z,100533.72
2022-11-27T11:52:12.654Z,100540.69
2022-11-27T11:53:42.650Z,100544.34
2022-11-27T11:55:20.238Z,100539.00
2022-11-27T11:56:40.917Z,100538.06
2022-11-27T11:58:13.782Z,100537.41
2022-11-27T11:59:57.771Z,100540.69
2022-11-27T12:01:27.792Z,100529.22
2022-11-27T12:03:17.566Z,100530.28
2022-11-27T12:05:03.076Z,100532.91
2022-11-27T12:06:40.480Z,100526.91
2022-11-27T12:08:06.208Z,100526.91
2022-11-27T12:09:23.957Z,100527.59
2022-11-27T12:10:52.089Z,100530.19
2022-11-27T12:12:18.137Z,100525.78
2022-11-27T12:13:40.099Z,100528.41
2022-11-27T12:15:02.145Z,100534.50
2022-11-27T12:16:46.263Z,100528.22
2022-11-27T12:18:19.000Z,100521.16
2022-11-27T12:20:13.922Z,100527.28
2022-11-27T12:21:48.569Z,100531.66
2022-11-27T12:23:52.490Z,100523.69
2022-11-27T12:25:25.646Z,100520.19
2022-11-27T12:26:58.478Z,100510.63
2022-11-27T12:28:30.793Z,100515.88
2022-11-27T12:30:04.941Z,100515.75
2022-11-27T12:31:46.250Z,100520.97
2022-11-27T12:33:30.942Z,100517.41
2022-11-27T12:35:18.979Z,100518.34
2022-11-27T12:37:07.064Z,100514.84
2022-11-27T12:38:41.808Z,100516.72
2022-11-27T12:40:50.416Z,100513.13
2022-11-27T12:42:29.684Z,100514.03
2022-11-27T12:43:50.812Z,100519.38
2022-11-27T12:45:21.903Z,100513.16
2022-11-27T12:46:52.088Z,100515.81
2022-11-27T12:48:38.937Z,100521.94
2022-11-27T12:49:57.661Z,100515.97
2022-11-27T12:51:37.419Z,100516.72
2022-11-27T12:52:50.637Z,100522.09
2022-11-27T12:54:03.240Z,100515.91
2022-11-27T12:55:21.367Z,100516.88
2022-11-27T12:56:41.454Z,100518.72
2022-11-27T12:57:53.030Z,100520.44
2022-11-27T12:59:17.506Z,100508.09
2022-11-27T13:00:27.280Z,100513.31
2022-11-27T13:01:50.750Z,100508.81
2022-11-27T13:04:08.844Z,100506.06
2022-11-27T13:05:50.416Z,100506.97
2022-11-27T13:07:18.508Z,100501.69
2022-11-27T13:08:54.630Z,100502.69
2022-11-27T13:10:36.004Z,100501.84
2022-11-27T13:11:43.450Z,100502.69
2022-11-27T13:13:21.891Z,100499.41
2022-11-27T13:14:28.860Z,100502.97
2022-11-27T13:15:43.959Z,100499.47
2022-11-27T13:17:02.806Z,100497.69
2022-11-27T14:14:19.886Z,100485.03
2022-11-27T14:15:32.310Z,100483.25
2022-11-27T14:16:45.766Z,100484.25
2022-11-27T14:18:08.301Z,100483.34
2022-11-27T14:19:34.834Z,100483.44
2022-11-27T14:21:02.793Z,100494.84
2022-11-27T14:23:11.277Z,100488.78
2022-11-27T14:24:33.860Z,100490.56
2022-11-27T14:25:41.303Z,100489.72
2022-11-27T14:26:46.026Z,100486.28
2022-11-27T14:28:21.981Z,100480.94
2022-11-27T14:29:30.330Z,100491.44
2022-11-27T14:30:45.675Z,100494.91
2022-11-27T14:32:02.040Z,100490.50
2022-11-27T14:33:18.297Z,100491.41
2022-11-27T14:34:34.315Z,100496.78
2022-11-27T14:35:42.723Z,100494.19
2022-11-27T14:36:53.382Z,100494.13
2022-11-27T14:38:16.560Z,100492.34
2022-11-27T14:39:36.418Z,100482.72
2022-11-27T14:40:44.531Z,100481.88
2022-11-27T14:42:00.375Z,100485.41